x

West Gulf - 207 Nm East Of Brownsville, Tx (42002) Wave Buoy

1:50pm - Mon 2nd Mar 2015 All times are CST. -6 hours from GMT.

  • Sig Wave height 2.6ft
  • Swell Direction
  • Peak Period 8s
  • Average Period 5s
  • Wind
    7mph, 9mph gusts
  • Sea Temp 72°f
  • Air Temp 72°f
  • Sea Pressure 1021.8mb
  • West Gulf - 207 Nm East Of Brownsville, Tx
  • West Gulf - 207 Nm East Of Brownsville, Tx

More Historic Weather Station data

Upgrade to MSW Pro to gain access to the past 30 days of data for over 8000 Wavebouys and Weather Stations around the globe.

Join Pro

Comparision Forecast

View Surf forecast
   
Mon 03/02 1:50pm 2.5ft 8s 5s 7 9 mph 1021.8mb 72f 72f
12:50pm 3ft 7s 6s 7
mph
1022.7mb 72f 73f
11:50am 2.5ft 7s 6s 4
mph
1023.7mb 73f 73f
10:50am 3ft 8s 6s 4
mph
1024.2mb 71f 71f
9:50am 3ft 7s 6s 4
mph
1024.3mb 70f 71f
8:50am 3.5ft 8s 6s 4
mph
1023.9mb 70f 71f
7:50am 3ft 7s 6s 4
mph
1023.4mb 70f 71f
6:50am 3ft 7s 6s 7
mph
1022.9mb 70f 71f
5:50am 3ft 7s 6s 4 7 mph 1022.2mb 70f 71f
4:50am 3ft 8s 6s 4 7 mph 1021.7mb 70f 71f
3:50am 3ft 6s 5s 7 9 mph 1022mb 70f 71f
2:50am 3.5ft 7s 5s 4
mph
1022.2mb 70f 71f
1:50am 3.5ft 7s 5s 4 7 mph 1022.6mb 70f 71f
12:50am 3.5ft 6s 5s 11
mph
1022.5mb 70f 71f
Sun 03/01 11:50pm 3.5ft 8s 5s 9 11 mph 1022.7mb 70f 71f
10:50pm 3.5ft 8s 5s 13
mph
1022.7mb 70f 71f
9:50pm 3.5ft 7s 5s 13
mph
1022.9mb 70f 71f
8:50pm 3.5ft 8s 5s 13
mph
1022.5mb 70f 71f
7:50pm 3.5ft 7s 5s 13 16 mph 1021.7mb 70f 71f
6:50pm 4ft 7s 5s 13
mph
1021.2mb 70f 71f
5:50pm 4ft 8s 5s 11 13 mph 1021mb 70f 71f
4:50pm 4ft 7s 5s 13 16 mph 1020.6mb 70f 72f
3:50pm 4ft 7s 5s 16 18 mph 1020.6mb 70f 72f
2:50pm 4.5ft 8s 5s 13 18 mph 1020.6mb 70f 72f
1:50pm 4.5ft 8s 5s 13 16 mph 1021.2mb 70f 72f
12:50pm 5ft 7s 6s 13 16 mph 1021.8mb 70f 72f
11:50am 5ft 8s 6s 9 11 mph 1022.6mb 70f 71f
10:50am 5ft 8s 6s 13 16 mph 1023mb 70f 71f
9:50am 5.5ft 7s 6s 13 16 mph 1022.8mb 70f 71f
8:50am 5.5ft 8s 6s 16 20 mph 1022mb 70f 71f
7:50am 6ft 8s 6s 13 16 mph 1021.8mb 70f 71f
6:50am 6ft 8s 6s 11 13 mph 1021.2mb 70f 71f
5:50am 6ft 8s 6s 11 13 mph 1020.8mb 70f 71f
4:50am 6.5ft 8s 7s 11 13 mph 1020.1mb 70f 71f
3:50am 6ft 9s 6s 16 18 mph 1019.9mb 70f 71f
2:50am 6.5ft 8s 6s 16 18 mph 1020mb 70f 71f
1:50am 6.5ft 8s 6s 13 16 mph 1020.2mb 70f 71f
12:50am 6.5ft 8s 6s 18 20 mph 1020.3mb 70f 71f
Sat 02/28 11:50pm 8ft 9s 7s 18 20 mph 1020.6mb 70f 71f
10:50pm 7ft 8s 6s 16 18 mph 1020.8mb 70f 71f
9:50pm 7ft 9s 6s 16 20 mph 1020.8mb 70f 71f
8:50pm 8.5ft 9s 7s 18 22 mph 1020.2mb 70f 70f
7:50pm 8ft 9s 6s 18 22 mph 1019.7mb 70f 70f
6:50pm 8ft 9s 6s 16 20 mph 1019.5mb 70f 70f
5:50pm 8ft 9s 6s 18 22 mph 1019.1mb 70f 71f
4:50pm 8.5ft 9s 6s 18 22 mph 1019.1mb 70f 71f
3:50pm 8.5ft 10s 6s 18 25 mph 1018.8mb 70f 71f
2:50pm 8.5ft 9s 6s 20 25 mph 1018.8mb 70f 71f
1:50pm 9ft 8s 7s 20 25 mph 1019.4mb 70f 71f
12:50pm 8ft 9s 6s 20 25 mph 1020.6mb 70f 71f
11:50am 8.5ft 8s 6s 20 25 mph 1021.2mb 70f 70f
10:50am 9ft 9s 7s 16 20 mph 1022mb 70f 70f
9:50am 8.5ft 9s 6s 16 20 mph 1022.4mb 69f 70f
8:50am 8ft 8s 6s 18 22 mph 1022.1mb 69f 68f
7:50am 8.5ft 9s 6s 20 22 mph 1021.5mb 69f 68f
6:50am 9ft 8s 6s 20 22 mph 1020.8mb 69f 67f
5:50am 8.5ft 8s 6s 20 25 mph 1020.7mb 69f 67f
4:50am 9ft 9s 6s 18 22 mph 1020.4mb 69f 67f
3:50am 9ft 8s 6s 18 22 mph 1020.4mb 69f 67f
2:50am 9ft 8s 6s 20 25 mph 1020.3mb 69f 67f
1:50am 8ft 8s 6s 22 27 mph 1020.3mb 69f 68f
12:50am 8ft 8s 6s 20 25 mph 1020.6mb 69f 69f
Fri 02/27 11:50pm 7.5ft 8s 6s 20 25 mph 1021.2mb 69f 69f
10:50pm 8ft 8s 6s 18 20 mph 1021.6mb 69f 68f
9:50pm 8ft 8s 6s 18 22 mph 1021.4mb 69f 69f
8:50pm 8ft 8s 6s 18 22 mph 1020.9mb 69f 69f
7:50pm 7.5ft 8s 6s 18 20 mph 1020.3mb 69f 69f
6:50pm 8ft 8s 6s 18 20 mph 1019.9mb 70f 69f
5:50pm 7ft 8s 6s 18 20 mph 1019.5mb 70f 69f
4:50pm 7ft 8s 6s 16 20 mph 1019.4mb 70f 67f
3:50pm 7ft 8s 6s 18 22 mph 1019.2mb 70f 68f
2:50pm 7ft 8s 6s 18 22 mph 1019.4mb 70f 68f
1:50pm 7.5ft 7s 6s 16 20 mph 1020.3mb 69f 67f
12:50pm 7ft 8s 6s 18 22 mph 1020.3mb 70f 66f
11:50am 6ft 8s 5s 22 27 mph 1020.9mb 70f 66f
10:50am 6ft 8s 5s 22 25 mph 1022mb 70f 65f
9:50am 7ft 7s 6s 20 27 mph 1022.7mb 70f 64f
8:50am 7ft 7s 6s 22 27 mph 1022.5mb 70f 64f
7:50am 7ft 7s 6s 22 25 mph 1022.3mb 70f 63f
6:50am 7ft 7s 6s 22 27 mph 1021.4mb 70f 63f
5:50am 6.5ft 7s 5s 20 25 mph 1021.5mb 70f 63f
4:50am 6.5ft 8s 6s 20 25 mph 1021.1mb 70f 62f
3:50am 7ft 7s 6s 20 27 mph 1020.8mb 70f 62f
2:50am 6.5ft 7s 5s 20 25 mph 1021mb 70f 62f
1:50am 6.5ft 7s 5s 22 27 mph 1020.4mb 70f 61f
12:50am 6.5ft 6s 5s 25 29 mph 1020.4mb 70f 61f
Thu 02/26 11:50pm 6ft 6s 5s 22 29 mph 1020.5mb 70f 61f
10:50pm 5ft 6s 5s 25 29 mph 1020.7mb 70f 60f
9:50pm 5ft 6s 5s 25 31 mph 1020.3mb 70f 60f